»·PEaware :: N4462U KAZC-KMHV

N4462U :: KAZC-KMHV

FLIGHT INFORMATION

Flight Status: Arrived
Operator: Privately registered:
United States
More flights under this callsign
Pilot: Robert C. (26285)
Aircraft: SOCATA TBM-850
(TBM8)
More flights by this aircraft type
Origin: KAZC Colorado City Mun
United States
Destination: KMHV Mojave
United States
More flights between these airports :: More routes between these airports
Route: NORRA J107 HEC V12 PMD
File this flight plan on PilotEdge
Remarks:
Altitude:
(Current/Filed)
28,000ft
Speed:
(Current/Filed)
314kts
Departed: 29-Nov-23 11:56 AM
Arrived: 29-Nov-23 01:20 PM
Distance/Time
Traveled:
274nm/1:24
Distance/Time
To Go:
Arrived

Flight Plot

Page will automatically refresh every two minutes.

Flight plan parsing failed; only flown route is shown


Map Options




Map Legend


Flown Route
Filed Route
Departure Airport
Arrival Airport
Navaid (VOR, NDB)
Fix

Horizontal Profiles

Position Reports

Time Latitude Longitude Heading Altitude Ground
Speed
29-Nov-23 11:28 36.960358 -113.010852 27 4905ft 0kts
29-Nov-23 11:29 36.960358 -113.010852 27 4905ft 0kts
29-Nov-23 11:33 36.960355 -113.010864 55 4889ft 0kts
29-Nov-23 11:34 36.960355 -113.010864 55 4889ft 0kts
29-Nov-23 11:35 36.960355 -113.010864 55 4889ft 0kts
29-Nov-23 11:36 36.960355 -113.010864 55 4889ft 0kts
29-Nov-23 11:37 36.960355 -113.010864 55 4889ft 0kts
29-Nov-23 11:38 36.960355 -113.010864 55 4889ft 0kts
29-Nov-23 11:39 36.960355 -113.010864 55 4889ft 0kts
29-Nov-23 11:40 36.960355 -113.010864 55 4895ft 0kts
29-Nov-23 11:41 36.960355 -113.010864 55 4895ft 0kts
29-Nov-23 11:42 36.960355 -113.010864 55 4895ft 0kts
29-Nov-23 11:43 36.960355 -113.010864 55 4895ft 0kts
29-Nov-23 11:44 36.960355 -113.010864 55 4895ft 0kts
29-Nov-23 11:45 36.960355 -113.010864 55 4895ft 0kts
29-Nov-23 11:46 36.960355 -113.010864 55 4895ft 0kts
29-Nov-23 11:47 36.960368 -113.010837 63 4895ft 2kts
29-Nov-23 11:48 36.958650 -113.010492 216 4884ft 4kts
29-Nov-23 11:48 36.956694 -113.008355 121 4885ft 20kts
29-Nov-23 11:50 36.955786 -113.005526 192 4886ft 0kts
29-Nov-23 11:51 36.955786 -113.005526 192 4886ft 0kts
29-Nov-23 11:52 36.955786 -113.005526 192 4886ft 0kts
29-Nov-23 11:52 36.955786 -113.005526 192 4886ft 0kts
29-Nov-23 11:53 36.955786 -113.005526 192 4886ft 0kts
29-Nov-23 11:54 36.956137 -113.007174 303 4885ft 40kts
29-Nov-23 11:56 36.957186 -113.042527 177 5930ft 137kts
29-Nov-23 11:57 36.928928 -113.008181 135 7611ft 157kts
29-Nov-23 11:57 36.903613 -113.024379 260 8982ft 171kts
29-Nov-23 11:58 36.898432 -113.083281 260 10879ft 166kts
29-Nov-23 11:59 36.892153 -113.139589 259 12865ft 166kts
29-Nov-23 12:01 36.883638 -113.216719 260 13974ft 217kts
29-Nov-23 12:01 36.875830 -113.283916 259 14015ft 248kts
29-Nov-23 12:02 36.866305 -113.367813 259 15046ft 226kts
29-Nov-23 12:03 36.858182 -113.438335 257 17449ft 183kts
29-Nov-23 12:04 36.851521 -113.497385 257 19122ft 177kts
29-Nov-23 12:05 36.844627 -113.558981 256 20560ft 181kts
29-Nov-23 12:06 36.837325 -113.622130 256 21948ft 185kts
29-Nov-23 12:07 36.829832 -113.686846 256 23286ft 190kts
29-Nov-23 12:08 36.822179 -113.752910 256 24417ft 193kts
29-Nov-23 12:09 36.814351 -113.819842 256 25509ft 196kts
29-Nov-23 12:10 36.806440 -113.887651 256 26592ft 199kts
29-Nov-23 12:11 36.798271 -113.957003 256 27562ft 205kts
29-Nov-23 12:12 36.789550 -114.030799 256 27987ft 233kts
29-Nov-23 12:13 36.779261 -114.116869 256 27993ft 265kts
29-Nov-23 12:14 36.768070 -114.211549 257 27991ft 284kts
29-Nov-23 12:15 36.737271 -114.297547 216 27978ft 275kts
29-Nov-23 12:16 36.671760 -114.346489 212 27986ft 275kts
29-Nov-23 12:17 36.607055 -114.397642 211 27983ft 276kts
29-Nov-23 12:18 36.541335 -114.447175 210 27988ft 276kts
29-Nov-23 12:19 36.475825 -114.496573 210 27982ft 275kts
29-Nov-23 12:20 36.410682 -114.546429 211 27976ft 275kts
29-Nov-23 12:21 36.345546 -114.596656 210 27983ft 276kts
29-Nov-23 12:22 36.280477 -114.646602 210 27980ft 275kts
29-Nov-23 12:23 36.215174 -114.696631 210 27979ft 275kts
29-Nov-23 12:24 36.149815 -114.746306 210 27982ft 275kts
29-Nov-23 12:25 36.084603 -114.796051 210 27977ft 275kts
29-Nov-23 12:26 36.019431 -114.845611 210 27980ft 275kts
29-Nov-23 12:27 35.962784 -114.909269 225 27988ft 277kts
29-Nov-23 12:28 35.910743 -114.979701 225 27987ft 278kts
29-Nov-23 12:29 35.858714 -115.050380 225 28033ft 278kts
29-Nov-23 12:30 35.806535 -115.121186 225 28027ft 278kts
29-Nov-23 12:31 35.754571 -115.191556 225 28030ft 278kts
29-Nov-23 12:32 35.702405 -115.262046 225 28021ft 277kts
29-Nov-23 12:33 35.650541 -115.331990 225 28027ft 277kts
29-Nov-23 12:34 35.598524 -115.401968 224 28022ft 277kts
29-Nov-23 12:35 35.546626 -115.471678 224 28022ft 277kts
29-Nov-23 12:36 35.494659 -115.541336 224 28021ft 276kts
29-Nov-23 12:37 35.442607 -115.610996 224 28028ft 277kts
29-Nov-23 12:38 35.390338 -115.680795 224 28023ft 277kts
29-Nov-23 12:39 35.338234 -115.750221 224 28023ft 277kts
29-Nov-23 12:40 35.285892 -115.819814 224 28029ft 278kts
29-Nov-23 12:41 35.233402 -115.889473 224 28031ft 279kts
29-Nov-23 12:42 35.180785 -115.959161 224 28022ft 279kts
29-Nov-23 12:43 35.127993 -116.028931 224 28013ft 279kts
29-Nov-23 12:44 35.075086 -116.098332 224 28008ft 279kts
29-Nov-23 12:45 35.022519 -116.168220 224 28008ft 279kts
29-Nov-23 12:46 34.969378 -116.237698 224 27643ft 290kts
29-Nov-23 12:47 34.912151 -116.312631 225 26405ft 305kts
29-Nov-23 12:48 34.854151 -116.388590 225 25268ft 307kts
29-Nov-23 12:49 34.799175 -116.468599 244 24330ft 313kts
29-Nov-23 12:50 34.786741 -116.572866 260 24013ft 306kts
29-Nov-23 12:51 34.776582 -116.673619 260 24011ft 296kts
29-Nov-23 12:52 34.766713 -116.772510 260 24024ft 292kts
29-Nov-23 12:53 34.756325 -116.875518 261 22631ft 318kts
29-Nov-23 12:54 34.745680 -116.982726 262 20854ft 321kts
29-Nov-23 12:55 34.735171 -117.090508 262 19155ft 320kts
29-Nov-23 12:56 34.723986 -117.197179 262 17454ft 314kts
29-Nov-23 12:57 34.713227 -117.301217 262 15701ft 307kts
29-Nov-23 12:58 34.702594 -117.402614 262 14349ft 294kts
29-Nov-23 12:59 34.692368 -117.498235 262 13998ft 276kts
29-Nov-23 13:00 34.682834 -117.589649 262 13985ft 271kts
29-Nov-23 13:01 34.673179 -117.680049 262 13971ft 268kts
29-Nov-23 13:02 34.663868 -117.770128 262 12906ft 267kts
29-Nov-23 13:03 34.654119 -117.858254 263 11357ft 259kts
29-Nov-23 13:04 34.646529 -117.939640 263 9955ft 225kts
29-Nov-23 13:05 34.637961 -118.007253 262 8756ft 195kts
29-Nov-23 13:06 34.641844 -118.069782 313 8004ft 183kts
29-Nov-23 13:07 34.687989 -118.103150 327 7614ft 203kts
29-Nov-23 13:08 34.736362 -118.136442 327 6949ft 188kts
29-Nov-23 13:09 34.781825 -118.168220 327 6297ft 191kts
29-Nov-23 13:10 34.827526 -118.199955 327 5999ft 182kts
29-Nov-23 13:11 34.868561 -118.180414 59 6021ft 189kts
29-Nov-23 13:12 34.896430 -118.124606 57 5936ft 195kts
29-Nov-23 13:13 34.921921 -118.072165 57 5390ft 163kts
29-Nov-23 13:14 34.958838 -118.050483 345 4735ft 153kts
29-Nov-23 13:15 34.994815 -118.073340 324 4030ft 139kts
29-Nov-23 13:16 35.021083 -118.102082 309 3445ft 93kts
29-Nov-23 13:17 35.038158 -118.122912 309 2880ft 84kts
29-Nov-23 13:18 35.052742 -118.140551 314 2725ft 44kts
29-Nov-23 13:19 35.057621 -118.147916 268 2749ft 2kts
29-Nov-23 13:20 35.057613 -118.148253 269 2749ft 9kts
29-Nov-23 13:21 35.057625 -118.151955 269 2756ft 12kts
29-Nov-23 13:22 35.057623 -118.155983 268 2764ft 11kts
29-Nov-23 13:23 35.057268 -118.157531 272 2768ft 0kts
29-Nov-23 13:24 35.057268 -118.157531 272 2768ft 0kts
29-Nov-23 13:25 35.057268 -118.157531 272 2768ft 0kts
29-Nov-23 13:26 35.057268 -118.157531 272 2768ft 0kts
29-Nov-23 13:27 35.057268 -118.157531 272 2768ft 0kts
29-Nov-23 13:28 35.057268 -118.157531 272 2768ft 0kts
29-Nov-23 13:29 35.057268 -118.157531 272 2768ft 0kts
29-Nov-23 13:30 35.057268 -118.157531 272 2768ft 0kts
29-Nov-23 13:31 35.057268 -118.157531 272 2768ft 0kts
29-Nov-23 13:32 35.057268 -118.157531 272 2768ft 0kts
29-Nov-23 13:33 35.057268 -118.157531 272 2768ft 0kts

Navigation Log

Ident Type
Flight plan parsing failed, navigation log unavailable